createdAt,value
2022-11-01T00:00:38.628Z,71.15
2022-11-01T00:03:11.034Z,70.88
2022-11-01T00:05:42.974Z,70.94
2022-11-01T00:08:14.976Z,70.71
2022-11-01T00:10:47.178Z,70.67
2022-11-01T00:13:21.578Z,71.25
2022-11-01T00:15:53.024Z,71.01
2022-11-01T00:18:25.776Z,70.90
2022-11-01T00:20:58.341Z,70.83
2022-11-01T00:23:30.930Z,71.03
2022-11-01T00:26:05.041Z,71.12
2022-11-01T00:28:40.929Z,71.10
2022-11-01T00:31:15.267Z,71.12
2022-11-01T00:33:48.618Z,70.91
2022-11-01T00:36:22.757Z,70.80
2022-11-01T00:38:55.164Z,70.79
2022-11-01T00:41:28.183Z,70.54
2022-11-01T00:44:03.690Z,70.57
2022-11-01T00:46:35.581Z,71.25
2022-11-01T00:49:08.059Z,70.66
2022-11-01T00:51:39.160Z,70.95
2022-11-01T00:54:11.762Z,71.21
2022-11-01T00:56:44.846Z,70.78
2022-11-01T00:59:21.740Z,71.33
2022-11-01T01:01:55.580Z,71.12
2022-11-01T01:04:29.294Z,71.79
2022-11-01T01:07:02.406Z,71.33
2022-11-01T01:09:36.190Z,71.40
2022-11-01T01:12:09.776Z,71.05
2022-11-01T01:14:45.348Z,71.43
2022-11-01T01:17:17.470Z,71.25
2022-11-01T01:19:50.252Z,71.00
2022-11-01T01:22:24.262Z,71.29
2022-11-01T01:24:57.898Z,71.17
2022-11-01T01:27:32.197Z,71.34
2022-11-01T01:30:05.681Z,71.28
2022-11-01T01:32:36.574Z,71.54
2022-11-01T01:35:07.889Z,71.40
2022-11-01T01:37:38.419Z,71.44
2022-11-01T01:40:10.741Z,71.23
2022-11-01T01:42:44.343Z,71.11
2022-11-01T01:45:31.091Z,71.40
2022-11-01T01:48:09.565Z,71.16
2022-11-01T01:50:45.040Z,71.17
2022-11-01T01:53:20.003Z,71.36
2022-11-01T01:55:56.726Z,71.74
2022-11-01T01:58:32.032Z,71.46
2022-11-01T02:01:05.004Z,71.60
2022-11-01T02:03:37.027Z,71.73
2022-11-01T02:06:13.680Z,71.73
2022-11-01T02:08:48.998Z,72.16
2022-11-01T02:11:20.674Z,71.93
2022-11-01T02:13:51.818Z,72.06
2022-11-01T02:16:50.177Z,72.58
2022-11-01T02:19:59.007Z,72.54
2022-11-01T02:22:40.083Z,72.23
2022-11-01T02:25:44.790Z,72.42
2022-11-01T02:28:42.174Z,72.52
2022-11-01T02:31:29.825Z,72.40
2022-11-01T02:34:07.969Z,72.25
2022-11-01T02:36:45.986Z,72.35
2022-11-01T02:39:23.207Z,72.27
2022-11-01T02:42:01.623Z,72.45
2022-11-01T02:44:37.796Z,72.33
2022-11-01T02:47:07.034Z,72.46
2022-11-01T02:49:43.230Z,72.42
2022-11-01T02:52:17.075Z,71.99
2022-11-01T02:54:49.425Z,71.95
2022-11-01T02:57:32.776Z,71.62
2022-11-01T03:00:08.793Z,71.96
2022-11-01T03:02:44.464Z,72.24
2022-11-01T03:05:26.232Z,72.80
2022-11-01T03:08:01.494Z,72.42
2022-11-01T03:10:37.368Z,73.47
2022-11-01T03:13:18.563Z,72.65
2022-11-01T03:16:03.406Z,72.58
2022-11-01T03:18:38.565Z,73.10
2022-11-01T03:21:18.529Z,73.10
2022-11-01T03:23:54.198Z,72.39
2022-11-01T03:26:30.514Z,71.87
2022-11-01T03:29:04.279Z,72.07
2022-11-01T03:31:37.862Z,71.60
2022-11-01T03:34:10.161Z,71.64
2022-11-01T03:36:48.766Z,71.75
2022-11-01T03:39:23.678Z,71.99
2022-11-01T03:41:58.812Z,72.33
2022-11-01T03:44:33.775Z,72.33
2022-11-01T03:47:04.410Z,72.56
2022-11-01T03:49:34.827Z,72.56
2022-11-01T03:52:08.365Z,72.04
2022-11-01T03:54:38.821Z,71.85
2022-11-01T03:57:09.587Z,71.80
2022-11-01T03:59:40.290Z,71.74
2022-11-01T04:05:01.108Z,71.42
2022-11-01T04:07:35.770Z,71.79
2022-11-01T04:10:06.422Z,71.44
2022-11-01T04:12:36.982Z,71.57
2022-11-01T04:15:20.750Z,71.66
2022-11-01T04:18:05.903Z,72.68
2022-11-01T04:20:36.926Z,73.71
2022-11-01T04:23:10.929Z,74.18
2022-11-01T04:25:41.527Z,74.29
2022-11-01T04:28:12.015Z,73.99
2022-11-01T04:30:42.458Z,74.11
2022-11-01T04:33:13.053Z,74.93
2022-11-01T04:35:43.818Z,74.35
2022-11-01T04:38:17.763Z,74.19
2022-11-01T04:40:48.284Z,74.67
2022-11-01T04:43:19.253Z,74.37
2022-11-01T04:45:57.162Z,74.34
2022-11-01T04:48:28.093Z,74.54
2022-11-01T04:50:58.585Z,74.61
2022-11-01T04:53:32.149Z,74.62
2022-11-01T04:56:04.371Z,74.64
2022-11-01T04:58:41.442Z,74.60
2022-11-01T05:01:15.655Z,74.19
2022-11-01T05:03:46.698Z,74.29
2022-11-01T05:06:17.169Z,74.43
2022-11-01T05:08:50.419Z,74.54
2022-11-01T05:11:25.756Z,74.43
2022-11-01T05:13:56.592Z,74.35
2022-11-01T05:16:27.039Z,75.01
2022-11-01T05:18:57.746Z,74.83
2022-11-01T05:21:28.231Z,74.63
2022-11-01T05:24:01.430Z,74.78
2022-11-01T05:26:31.923Z,74.90
2022-11-01T05:29:08.828Z,74.79
2022-11-01T05:31:40.222Z,74.77
2022-11-01T05:34:10.861Z,74.91
2022-11-01T05:36:41.341Z,74.88
2022-11-01T05:39:14.582Z,75.05
2022-11-01T05:41:45.062Z,75.15
2022-11-01T05:44:15.587Z,75.17
2022-11-01T05:46:46.115Z,74.93
2022-11-01T05:49:16.699Z,74.43
2022-11-01T05:51:47.153Z,74.51
2022-11-01T05:54:20.429Z,74.59
2022-11-01T05:56:50.874Z,74.70
2022-11-01T05:59:21.521Z,75.12
2022-11-01T06:01:52.057Z,74.72
2022-11-01T06:04:25.093Z,74.39
2022-11-01T06:06:55.481Z,73.80
2022-11-01T06:09:28.731Z,73.56
2022-11-01T06:11:59.191Z,73.26
2022-11-01T06:14:29.775Z,72.81
2022-11-01T06:17:00.395Z,72.55
2022-11-01T06:19:30.982Z,72.40
2022-11-01T06:22:01.644Z,71.65
2022-11-01T06:24:34.853Z,71.35
2022-11-01T06:27:09.846Z,70.58
2022-11-01T06:29:42.169Z,70.26
2022-11-01T06:32:12.667Z,69.80
2022-11-01T06:34:44.975Z,69.66
2022-11-01T06:37:15.584Z,68.86
2022-11-01T06:39:48.793Z,68.83
2022-11-01T06:42:19.312Z,68.60
2022-11-01T06:44:49.891Z,68.04
2022-11-01T06:47:20.493Z,66.67
2022-11-01T06:49:51.108Z,66.29
2022-11-01T06:52:21.562Z,66.08
2022-11-01T06:54:54.868Z,65.32
2022-11-01T06:57:25.358Z,64.59
2022-11-01T06:59:55.872Z,63.94
2022-11-01T07:02:29.730Z,63.06
2022-11-01T07:05:00.757Z,62.68
2022-11-01T07:07:31.533Z,62.00
2022-11-01T07:10:04.757Z,60.22
2022-11-01T07:12:35.204Z,59.90
2022-11-01T07:15:06.034Z,58.54
2022-11-01T07:17:36.745Z,57.05
2022-11-01T07:20:08.192Z,56.67
2022-11-01T07:22:38.641Z,55.74
2022-11-01T07:25:12.351Z,54.92
2022-11-01T07:27:43.038Z,54.65
2022-11-01T07:30:14.799Z,53.87
2022-11-01T07:32:45.247Z,53.56
2022-11-01T07:35:15.872Z,53.11
2022-11-01T07:37:46.333Z,52.89
2022-11-01T07:40:19.629Z,52.56
2022-11-01T07:42:50.191Z,52.69
2022-11-01T07:45:20.973Z,52.54
2022-11-01T07:47:51.487Z,51.79
2022-11-01T07:50:22.318Z,51.71
2022-11-01T07:53:02.414Z,51.35
2022-11-01T07:55:35.574Z,51.70
2022-11-01T07:58:06.918Z,51.34
2022-11-01T08:00:38.500Z,51.14
2022-11-01T08:03:12.456Z,51.14
2022-11-01T08:05:43.621Z,51.25
2022-11-01T08:08:14.661Z,51.20
2022-11-01T08:10:48.486Z,50.95
2022-11-01T08:13:21.406Z,50.81
2022-11-01T08:15:53.664Z,51.01
2022-11-01T08:18:25.591Z,50.87
2022-11-01T08:20:56.192Z,50.84
2022-11-01T08:23:26.699Z,50.30
2022-11-01T08:26:00.487Z,50.24
2022-11-01T08:28:30.981Z,50.41
2022-11-01T08:31:01.757Z,49.83
2022-11-01T08:33:32.258Z,50.00
2022-11-01T08:36:02.991Z,49.74
2022-11-01T08:38:33.504Z,49.03
2022-11-01T08:41:06.825Z,48.40
2022-11-01T08:43:40.503Z,48.35
2022-11-01T08:46:11.947Z,47.45
2022-11-01T08:48:42.426Z,47.03
2022-11-01T08:51:12.960Z,46.73
2022-11-01T08:53:43.896Z,46.66
2022-11-01T08:56:17.072Z,45.84
2022-11-01T08:58:47.567Z,45.63
2022-11-01T09:01:18.339Z,45.45
2022-11-01T09:03:48.942Z,45.51
2022-11-01T09:06:19.768Z,45.28
2022-11-01T09:08:50.455Z,45.41
2022-11-01T09:11:24.834Z,45.58
2022-11-01T09:13:58.020Z,44.80
2022-11-01T09:16:28.651Z,43.97
2022-11-01T09:19:02.014Z,43.65
2022-11-01T09:21:32.873Z,44.23
2022-11-01T09:24:04.161Z,42.91
2022-11-01T09:26:37.305Z,43.27
2022-11-01T09:29:08.037Z,42.55
2022-11-01T09:31:38.627Z,43.26
2022-11-01T09:34:09.110Z,43.29
2022-11-01T09:36:39.641Z,42.29
2022-11-01T09:39:10.067Z,43.00
2022-11-01T09:41:48.076Z,42.76
2022-11-01T09:44:22.253Z,42.41
2022-11-01T09:46:59.549Z,41.13
2022-11-01T09:49:37.277Z,41.53
2022-11-01T09:52:08.535Z,41.13
2022-11-01T09:54:40.383Z,41.22
2022-11-01T09:57:22.619Z,40.67
2022-11-01T10:00:04.667Z,39.87
2022-11-01T10:03:03.312Z,39.89
2022-11-01T10:05:51.619Z,39.57
2022-11-01T10:08:37.487Z,39.80
2022-11-01T10:11:20.047Z,40.52
2022-11-01T10:14:01.649Z,40.07
2022-11-01T10:16:38.877Z,39.51
2022-11-01T10:19:15.485Z,38.38
2022-11-01T10:21:50.239Z,39.26
2022-11-01T10:24:30.896Z,38.84
2022-11-01T10:27:08.442Z,37.82
2022-11-01T10:29:50.596Z,38.08
2022-11-01T10:32:31.247Z,37.70
2022-11-01T10:35:07.354Z,37.44
2022-11-01T10:37:52.361Z,37.52
2022-11-01T10:40:41.229Z,36.60
2022-11-01T10:43:16.290Z,36.66
2022-11-01T10:45:53.071Z,36.55
2022-11-01T10:48:32.842Z,35.51
2022-11-01T10:51:06.598Z,36.63
2022-11-01T10:53:41.385Z,36.46
2022-11-01T10:56:24.045Z,36.34
2022-11-01T10:59:01.691Z,35.67
2022-11-01T11:01:43.202Z,35.37
2022-11-01T11:04:18.133Z,35.36
2022-11-01T11:06:49.357Z,35.71
2022-11-01T11:09:27.583Z,36.11
2022-11-01T11:12:03.121Z,35.57
2022-11-01T11:14:36.396Z,35.45
2022-11-01T11:17:18.247Z,34.78
2022-11-01T11:19:49.947Z,35.45
2022-11-01T11:22:20.901Z,34.85
2022-11-01T11:24:53.076Z,35.35
2022-11-01T11:27:26.197Z,34.86
2022-11-01T11:29:58.984Z,35.14
2022-11-01T11:32:35.671Z,34.29
2022-11-01T11:35:13.468Z,34.81
2022-11-01T11:37:55.855Z,34.22
2022-11-01T11:40:27.386Z,33.92
2022-11-01T11:42:59.653Z,33.83
2022-11-01T11:45:31.798Z,33.73
2022-11-01T11:48:19.327Z,32.74
2022-11-01T11:50:50.021Z,34.14
2022-11-01T11:53:23.645Z,33.51
2022-11-01T11:55:58.379Z,34.09
2022-11-01T11:58:33.103Z,31.93
2022-11-01T12:01:07.194Z,32.84
2022-11-01T12:03:50.555Z,32.74
2022-11-01T12:06:24.184Z,32.86
2022-11-01T12:08:56.796Z,32.53
2022-11-01T12:11:29.048Z,32.55
2022-11-01T12:14:23.203Z,31.88
2022-11-01T12:16:54.132Z,32.16
2022-11-01T12:19:29.536Z,30.99
2022-11-01T12:22:03.417Z,31.10
2022-11-01T12:24:40.182Z,31.57
2022-11-01T12:27:19.149Z,30.89
2022-11-01T12:29:54.417Z,29.99
2022-11-01T12:32:30.802Z,30.33
2022-11-01T12:35:07.809Z,31.07
2022-11-01T12:37:50.264Z,30.56
2022-11-01T12:40:25.180Z,31.39
2022-11-01T12:43:01.437Z,31.54
2022-11-01T12:45:37.530Z,31.19
2022-11-01T12:48:14.464Z,31.72
2022-11-01T12:50:53.349Z,31.78
2022-11-01T12:53:27.718Z,32.26
2022-11-01T12:56:00.902Z,32.11
2022-11-01T12:58:35.220Z,32.31
2022-11-01T13:01:27.496Z,32.42
2022-11-01T13:04:10.310Z,32.29
2022-11-01T13:07:06.474Z,32.28
2022-11-01T13:09:48.741Z,32.70
2022-11-01T13:12:26.449Z,32.78
2022-11-01T13:15:06.641Z,32.73
2022-11-01T13:17:43.496Z,32.81
2022-11-01T13:20:41.332Z,33.22
2022-11-01T13:23:22.186Z,33.18
2022-11-01T13:26:01.934Z,33.22
2022-11-01T13:28:49.179Z,33.16
2022-11-01T13:31:33.741Z,33.59
2022-11-01T13:34:16.867Z,33.41
2022-11-01T13:36:56.883Z,33.92
2022-11-01T13:39:40.747Z,33.47
2022-11-01T13:42:16.374Z,33.54
2022-11-01T13:44:50.865Z,33.54
2022-11-01T13:50:54.716Z,33.83
2022-11-01T13:53:34.294Z,34.32
2022-11-01T13:56:14.433Z,34.39
2022-11-01T13:58:44.980Z,34.48
2022-11-01T14:01:37.913Z,34.36
2022-11-01T14:04:49.885Z,34.17
2022-11-01T14:07:24.325Z,34.57
2022-11-01T14:09:56.060Z,34.21
2022-11-01T14:12:43.349Z,34.69
2022-11-01T14:15:39.375Z,35.15
2022-11-01T14:18:14.704Z,35.06
2022-11-01T14:20:53.711Z,35.23
2022-11-01T14:23:52.500Z,35.35
2022-11-01T14:27:05.195Z,35.72
2022-11-01T14:29:36.785Z,35.70
2022-11-01T14:32:08.984Z,36.02
2022-11-01T14:34:39.789Z,36.44
2022-11-01T14:37:23.319Z,36.54
2022-11-01T14:40:04.841Z,36.26
2022-11-01T14:42:45.671Z,36.75
2022-11-01T14:45:35.216Z,37.15
2022-11-01T14:48:13.311Z,36.75
2022-11-01T14:50:55.316Z,37.15
2022-11-01T14:53:31.472Z,37.46
2022-11-01T14:56:22.080Z,37.90
2022-11-01T14:58:52.526Z,38.01
2022-11-01T15:01:25.301Z,37.66
2022-11-01T15:04:00.213Z,37.97
2022-11-01T15:06:32.649Z,38.45
2022-11-01T15:09:05.570Z,38.67
2022-11-01T15:11:39.313Z,38.84
2022-11-01T15:14:11.699Z,39.04
2022-11-01T15:16:45.645Z,38.91
2022-11-01T15:19:19.364Z,39.15
2022-11-01T15:21:51.174Z,39.11
2022-11-01T15:24:24.820Z,39.46
2022-11-01T15:26:58.612Z,39.58
2022-11-01T15:29:29.754Z,39.87
2022-11-01T15:32:03.007Z,39.48
2022-11-01T15:34:35.285Z,39.92
2022-11-01T15:37:18.790Z,40.27
2022-11-01T15:39:49.610Z,40.45
2022-11-01T15:42:27.726Z,40.64
2022-11-01T15:44:58.179Z,40.76
2022-11-01T15:47:31.061Z,40.59
2022-11-01T15:50:05.811Z,41.24
2022-11-01T15:52:38.974Z,41.42
2022-11-01T15:55:15.705Z,41.26
2022-11-01T15:57:52.771Z,41.82
2022-11-01T16:00:33.013Z,41.89
2022-11-01T16:03:07.796Z,42.09
2022-11-01T16:05:44.986Z,42.47
2022-11-01T16:08:22.449Z,42.38
2022-11-01T16:10:53.088Z,43.00
2022-11-01T16:13:26.498Z,43.31
2022-11-01T16:16:08.644Z,43.03
2022-11-01T16:18:40.504Z,43.11
2022-11-01T16:21:32.026Z,43.45
2022-11-01T16:24:09.462Z,43.78
2022-11-01T16:26:55.628Z,43.84
2022-11-01T16:29:45.018Z,44.34
2022-11-01T16:32:22.057Z,43.92
2022-11-01T16:34:53.006Z,43.92
2022-11-01T16:37:24.175Z,44.03
2022-11-01T16:39:55.041Z,44.29
2022-11-01T16:42:26.370Z,44.62
2022-11-01T16:45:00.210Z,44.85
2022-11-01T16:47:31.344Z,44.83
2022-11-01T16:50:01.911Z,44.90
2022-11-01T16:52:34.097Z,44.71
2022-11-01T16:55:04.633Z,45.24
2022-11-01T16:57:35.085Z,45.05
2022-11-01T17:00:15.103Z,44.98
2022-11-01T17:02:45.626Z,45.08
2022-11-01T17:05:23.746Z,45.63
2022-11-01T17:07:55.561Z,45.40
2022-11-01T17:10:31.220Z,45.65
2022-11-01T17:13:04.254Z,45.79
2022-11-01T17:15:42.747Z,45.83
2022-11-01T17:18:17.794Z,45.89
2022-11-01T17:20:52.328Z,46.26
2022-11-01T17:23:26.577Z,46.09
2022-11-01T17:25:58.170Z,46.27
2022-11-01T17:28:28.887Z,46.55
2022-11-01T17:31:02.283Z,46.58
2022-11-01T17:33:32.838Z,46.94
2022-11-01T17:36:04.098Z,47.00
2022-11-01T17:38:37.186Z,47.17
2022-11-01T17:41:09.717Z,47.37
2022-11-01T17:43:40.376Z,47.64
2022-11-01T17:46:17.995Z,47.81
2022-11-01T17:48:48.963Z,48.12
2022-11-01T17:51:19.816Z,48.03
2022-11-01T17:53:50.481Z,48.11
2022-11-01T17:56:21.035Z,48.62
2022-11-01T17:58:53.908Z,48.62
2022-11-01T18:01:27.295Z,48.92
2022-11-01T18:03:57.943Z,48.96
2022-11-01T18:06:28.687Z,48.80
2022-11-01T18:08:59.210Z,49.06
2022-11-01T18:11:42.619Z,49.33
2022-11-01T18:14:18.004Z,49.42
2022-11-01T18:16:56.650Z,49.58
2022-11-01T18:19:44.225Z,50.22
2022-11-01T18:22:23.837Z,49.88
2022-11-01T18:25:00.425Z,49.98
2022-11-01T18:27:37.826Z,50.17
2022-11-01T18:30:17.785Z,50.43
2022-11-01T18:32:57.777Z,50.61
2022-11-01T18:35:35.471Z,50.52
2022-11-01T18:38:23.421Z,52.09
2022-11-01T18:41:00.730Z,55.53
2022-11-01T18:43:34.411Z,59.60
2022-11-01T18:46:25.798Z,61.99
2022-11-01T18:49:03.881Z,64.86
2022-11-01T18:51:38.562Z,66.31
2022-11-01T18:54:30.506Z,66.98
2022-11-01T18:57:02.918Z,67.73
2022-11-01T18:59:36.763Z,69.19
2022-11-01T19:02:17.423Z,69.91
2022-11-01T19:04:53.456Z,70.94
2022-11-01T19:07:27.189Z,71.97
2022-11-01T19:10:04.254Z,70.98
2022-11-01T19:12:39.611Z,78.80
2022-11-01T19:15:23.411Z,72.00
2022-11-01T19:18:00.719Z,70.23
2022-11-01T19:20:37.926Z,68.86
2022-11-01T19:23:17.337Z,67.99
2022-11-01T19:25:48.317Z,66.72
2022-11-01T19:28:28.581Z,65.92
2022-11-01T19:31:01.707Z,65.14
2022-11-01T19:33:37.468Z,64.12
2022-11-01T19:36:24.976Z,63.68
2022-11-01T19:38:56.334Z,62.86
2022-11-01T19:41:33.470Z,62.36
2022-11-01T19:44:14.369Z,62.05
2022-11-01T19:46:44.913Z,61.53
2022-11-01T19:49:26.583Z,61.22
2022-11-01T19:52:15.156Z,60.79
2022-11-01T19:54:55.375Z,60.62
2022-11-01T19:57:33.490Z,60.41
2022-11-01T20:00:19.214Z,60.32
2022-11-01T20:02:50.947Z,59.89
2022-11-01T20:05:29.489Z,59.85
2022-11-01T20:08:18.543Z,59.98
2022-11-01T20:10:49.135Z,59.57
2022-11-01T20:13:19.950Z,59.71
2022-11-01T20:15:50.427Z,59.44
2022-11-01T20:18:21.068Z,59.63
2022-11-01T20:20:53.099Z,59.77
2022-11-01T20:23:27.252Z,59.40
2022-11-01T20:25:58.494Z,59.58
2022-11-01T20:28:29.176Z,59.65
2022-11-01T20:30:59.669Z,59.63
2022-11-01T20:33:30.315Z,59.54
2022-11-01T20:36:01.188Z,59.70
2022-11-01T20:38:34.532Z,59.66
2022-11-01T20:41:05.012Z,59.33
2022-11-01T20:43:35.622Z,59.76
2022-11-01T20:46:06.068Z,59.90
2022-11-01T20:48:36.679Z,59.97
2022-11-01T20:51:07.457Z,60.47
2022-11-01T20:53:40.883Z,60.10
2022-11-01T20:56:12.379Z,60.17
2022-11-01T20:58:42.987Z,60.09
2022-11-01T21:01:17.492Z,60.29
2022-11-01T21:03:48.162Z,60.14
2022-11-01T21:06:20.598Z,59.99
2022-11-01T21:08:53.762Z,60.05
2022-11-01T21:11:44.268Z,60.31
2022-11-01T21:14:18.632Z,60.43
2022-11-01T21:16:50.162Z,60.19
2022-11-01T21:19:24.305Z,60.77
2022-11-01T21:21:56.782Z,60.79
2022-11-01T21:24:34.404Z,61.01
2022-11-01T21:27:23.120Z,61.63
2022-11-01T21:29:54.985Z,61.11
2022-11-01T21:32:30.182Z,61.04
2022-11-01T21:35:01.293Z,61.14
2022-11-01T21:37:33.349Z,60.90
2022-11-01T21:40:24.127Z,61.27
2022-11-01T21:42:54.604Z,61.14
2022-11-01T21:45:32.765Z,61.61
2022-11-01T21:48:05.875Z,61.27
2022-11-01T21:50:36.560Z,61.36
2022-11-01T21:53:07.148Z,61.71
2022-11-01T21:55:40.333Z,62.02
2022-11-01T21:58:10.900Z,61.90
2022-11-01T22:00:41.412Z,61.80
2022-11-01T22:03:11.886Z,62.82
2022-11-01T22:05:42.436Z,63.43
2022-11-01T22:08:13.010Z,63.06
2022-11-01T22:10:46.134Z,63.42
2022-11-01T22:13:16.599Z,63.08
2022-11-01T22:15:47.188Z,62.58
2022-11-01T22:18:22.411Z,62.33
2022-11-01T22:20:55.367Z,62.00
2022-11-01T22:23:25.792Z,61.95
2022-11-01T22:25:58.971Z,62.26
2022-11-01T22:28:29.410Z,62.35
2022-11-01T22:31:00.033Z,62.48
2022-11-01T22:33:30.495Z,62.24
2022-11-01T22:36:01.105Z,62.14
2022-11-01T22:38:37.742Z,62.54
2022-11-01T22:41:14.979Z,63.15
2022-11-01T22:43:49.073Z,63.27
2022-11-01T22:46:23.312Z,63.37
2022-11-01T22:48:55.835Z,63.43
2022-11-01T22:51:32.827Z,63.59
2022-11-01T22:54:03.389Z,63.25
2022-11-01T22:56:36.649Z,63.47
2022-11-01T22:59:07.368Z,63.32
2022-11-01T23:01:38.139Z,63.44
2022-11-01T23:04:22.077Z,63.93
2022-11-01T23:06:52.654Z,64.03
2022-11-01T23:09:23.926Z,64.42
2022-11-01T23:12:11.354Z,64.72
2022-11-01T23:14:45.715Z,64.29
2022-11-01T23:17:25.141Z,64.33
2022-11-01T23:19:59.151Z,64.25
2022-11-01T23:22:34.376Z,64.17
2022-11-01T23:25:06.559Z,65.09
2022-11-01T23:27:39.996Z,64.39
2022-11-01T23:30:11.757Z,64.16
2022-11-01T23:32:42.793Z,64.32
2022-11-01T23:35:17.159Z,63.92
2022-11-01T23:37:48.104Z,63.71
2022-11-01T23:40:21.344Z,63.86
2022-11-01T23:42:54.616Z,63.70
2022-11-01T23:45:31.792Z,63.96
2022-11-01T23:48:04.099Z,63.90
2022-11-01T23:50:37.185Z,64.08
2022-11-01T23:53:12.002Z,64.17
2022-11-01T23:55:45.892Z,64.47
2022-11-01T23:58:22.532Z,64.38
